Allevamento Bachi da Seta 2022

Temperatura ed Umidità dell’allevamento

Data e Ora Temperatura Umidità
2022-06-01 00:46:15 22.0 58
2022-06-01 01:01:15 20.9 72
2022-06-01 01:16:15 20.4 76
2022-06-01 01:31:15 20.0 78
2022-06-01 01:46:15 19.8 80
2022-06-01 02:01:15 19.5 82
2022-06-01 02:16:15 19.4 83
2022-06-01 02:31:15 19.2 83
2022-06-01 02:46:15 19.1 83
2022-06-01 03:01:15 18.9 84
2022-06-01 03:16:15 18.8 84
2022-06-01 03:31:15 18.7 84
2022-06-01 03:46:15 18.6 84
2022-06-01 04:01:15 18.5 84
2022-06-01 04:16:15 18.4 84
2022-06-01 04:31:15 18.3 85
2022-06-01 04:46:15 18.2 85
2022-06-01 05:01:15 18.1 85
2022-06-01 05:16:15 18.0 85
2022-06-01 05:31:15 17.9 85
2022-06-01 05:46:15 17.8 86
2022-06-01 06:01:15 17.7 86
2022-06-01 06:16:15 17.7 86
2022-06-01 06:31:15 17.6 86
2022-06-01 06:46:15 17.6 86
2022-06-01 07:01:15 17.5 86
2022-06-01 07:16:15 17.5 87
2022-06-01 07:31:15 17.5 87
2022-06-01 07:46:15 17.5 87
2022-06-01 08:01:15 17.5 87
2022-06-01 08:16:15 17.5 87
2022-06-01 08:31:15 17.6 87
2022-06-01 08:46:15 17.7 87
2022-06-01 09:01:15 17.7 87
2022-06-01 09:16:15 17.9 88
2022-06-01 09:31:15 17.9 87
2022-06-01 09:46:15 18.1 87
2022-06-01 10:01:15 18.1 87
2022-06-01 10:16:15 18.3 87
2022-06-01 10:31:15 18.4 86
2022-06-01 10:46:15 18.6 86
2022-06-01 11:01:15 18.7 86
2022-06-01 11:16:15 19.1 83
2022-06-01 11:31:15 20.5 68
2022-06-01 11:46:15 20.6 64
2022-06-01 12:01:15 20.8 64
2022-06-01 12:16:15 20.7 65
2022-06-01 12:31:18 21.4 63
2022-06-01 12:46:18 21.2 63
2022-06-01 13:01:18 21.3 65
2022-06-01 13:16:18 21.4 64
2022-06-01 13:31:18 21.6 64
2022-06-01 13:46:18 21.8 66
2022-06-01 14:01:18 21.9 64
2022-06-01 14:16:18 22.1 64
2022-06-01 14:31:18 22.3 63
2022-06-01 14:46:18 22.5 65
2022-06-01 15:01:18 22.7 63
2022-06-01 15:16:18 22.8 63
2022-06-01 15:31:18 23.0 61
2022-06-01 15:46:18 23.2 61
2022-06-01 16:01:18 23.4 61
2022-06-01 16:16:18 23.6 60
2022-06-01 16:31:18 23.8 59
2022-06-01 16:46:18 24.2 56
2022-06-01 17:01:18 24.5 59
2022-06-01 17:16:18 24.7 58
2022-06-01 17:31:18 24.9 59
2022-06-01 17:46:18 25.1 59
2022-06-01 18:01:18 25.3 59
2022-06-01 18:16:18 25.5 59
2022-06-01 18:31:18 25.8 58
2022-06-01 18:46:18 25.9 60
2022-06-01 19:01:18 26.1 58
2022-06-01 19:16:18 26.2 59
2022-06-01 19:31:18 26.2 58
2022-06-01 19:46:18 26.0 57
2022-06-01 20:01:18 25.8 56
2022-06-01 20:16:18 25.7 57
2022-06-01 20:31:18 25.4 57
2022-06-01 20:46:18 25.2 60
2022-06-01 21:01:18 25.0 59
2022-06-01 21:16:18 24.9 60
2022-06-01 21:31:18 24.7 61
2022-06-01 21:46:18 24.5 59
2022-06-01 22:01:18 24.3 58
2022-06-01 22:16:18 24.1 58
2022-06-01 22:31:18 23.9 58
2022-06-01 22:46:18 23.8 58
2022-06-01 23:01:18 23.6 58
2022-06-01 23:16:18 23.4 60
2022-06-01 23:31:18 23.2 58
2022-06-01 23:46:18 23.0 61
2022-06-02 00:01:18 22.9 59
2022-06-02 00:16:18 22.7 61
2022-06-02 00:31:18 22.6 61
2022-06-02 00:46:18 22.4 61
2022-06-02 01:01:18 22.3 61
2022-06-02 01:16:18 22.1 61
2022-06-02 01:31:18 22.0 60
2022-06-02 01:46:18 21.9 60
2022-06-02 02:01:18 21.7 59
2022-06-02 02:16:18 21.6 61
2022-06-02 02:31:18 21.4 60
2022-06-02 02:46:18 21.4 60
2022-06-02 03:01:18 21.2 60
2022-06-02 03:16:18 21.1 60
2022-06-02 03:31:18 21.0 59
2022-06-02 03:46:18 20.9 59
2022-06-02 04:01:18 20.7 59
2022-06-02 04:16:18 20.7 59
2022-06-02 04:31:18 20.6 59
2022-06-02 04:46:18 20.5 59
2022-06-02 05:01:18 20.4 59
2022-06-02 05:16:18 20.3 59
2022-06-02 05:31:18 20.2 59
2022-06-02 05:46:18 20.1 59
2022-06-02 06:01:18 20.0 59
2022-06-02 06:16:18 19.9 59
2022-06-02 06:31:18 19.9 60
2022-06-02 06:46:18 19.9 60
2022-06-02 07:01:18 19.8 60
2022-06-02 07:16:18 19.8 60
2022-06-02 07:31:18 19.7 60
2022-06-02 07:46:18 19.8 60
2022-06-02 08:01:18 19.8 61
2022-06-02 08:16:18 19.8 61
2022-06-02 08:31:18 19.8 61
2022-06-02 08:46:18 19.9 61
2022-06-02 09:01:18 19.9 60
2022-06-02 09:16:18 20.1 61
2022-06-02 09:31:18 20.2 61
2022-06-02 09:46:18 20.4 61
2022-06-02 10:01:18 20.7 64
2022-06-02 10:16:18 20.9 61
2022-06-02 10:31:18 21.0 63
2022-06-02 10:46:18 21.3 62
2022-06-02 11:01:18 21.4 63
2022-06-02 11:16:18 21.6 63
2022-06-02 11:31:18 22.0 64
2022-06-02 11:46:18 22.2 63
2022-06-02 12:01:18 22.4 62
2022-06-02 12:16:18 22.5 62
2022-06-02 12:31:18 22.7 63
2022-06-02 12:46:18 22.9 62
2022-06-02 13:01:18 23.0 62
2022-06-02 13:16:18 23.2 61
2022-06-02 13:31:18 23.3 61
2022-06-02 13:46:18 23.5 61
2022-06-02 14:01:18 23.7 61
2022-06-02 14:16:18 23.9 61
2022-06-02 14:31:18 24.1 60
2022-06-02 14:46:18 24.3 61
2022-06-02 15:01:18 24.4 61
2022-06-02 15:16:18 24.5 59
2022-06-02 15:31:18 24.7 59
2022-06-02 15:46:18 24.9 60
2022-06-02 16:01:18 25.1 60
2022-06-02 16:16:18 25.3 60
2022-06-02 16:31:18 25.5 55
2022-06-02 16:46:18 25.8 60
2022-06-02 17:01:18 25.9 60
2022-06-02 17:16:18 26.0 60
2022-06-02 17:31:18 26.0 61
2022-06-02 17:46:18 26.1 61
2022-06-02 18:01:18 26.2 61
2022-06-02 18:16:18 26.4 61
2022-06-02 18:31:18 26.5 61
2022-06-02 18:46:18 26.6 62
2022-06-02 19:01:18 26.7 61
2022-06-02 19:16:18 26.8 60
2022-06-02 19:31:18 26.8 60
2022-06-02 19:46:18 26.7 58
2022-06-02 20:01:18 26.5 58
2022-06-02 20:16:18 26.3 58
2022-06-02 20:31:18 26.1 60
2022-06-02 20:46:18 25.9 58
2022-06-02 21:01:18 25.7 59
2022-06-02 21:16:18 25.5 59
2022-06-02 21:31:18 25.3 58
2022-06-02 21:46:18 25.2 59
2022-06-02 22:01:18 24.9 58
2022-06-02 22:16:18 24.8 58
2022-06-02 22:31:18 24.6 58
2022-06-02 22:46:18 24.4 58
2022-06-02 23:01:18 24.2 60
2022-06-02 23:16:18 24.0 61
2022-06-02 23:31:18 23.9 60
2022-06-02 23:46:18 23.7 63
2022-06-03 00:01:18 23.5 64
2022-06-03 00:16:18 23.4 67
2022-06-03 00:31:18 23.2 67
2022-06-03 00:46:18 23.1 67
2022-06-03 01:01:18 22.9 66
2022-06-03 01:16:18 22.8 65
2022-06-03 01:31:18 22.7 64
2022-06-03 01:46:18 22.5 63
2022-06-03 02:01:18 22.4 64
2022-06-03 02:16:18 22.3 64
2022-06-03 02:31:18 22.2 65
2022-06-03 02:46:18 22.1 63
2022-06-03 03:01:18 21.9 63
2022-06-03 03:16:18 21.9 63
2022-06-03 03:31:18 21.7 63
2022-06-03 03:46:18 21.6 63
2022-06-03 04:01:18 21.5 62
2022-06-03 04:16:18 21.5 63
2022-06-03 04:31:18 21.4 62
2022-06-03 04:46:18 21.2 63
2022-06-03 05:01:18 21.2 62
2022-06-03 05:16:18 21.1 62
2022-06-03 05:31:18 21.0 63
2022-06-03 05:46:18 21.0 63
2022-06-03 06:01:18 20.9 63
2022-06-03 06:16:18 20.8 63
2022-06-03 06:31:18 20.7 63
2022-06-03 06:46:18 20.7 65
2022-06-03 07:01:18 20.7 64
2022-06-03 07:16:18 20.6 66
2022-06-03 07:31:18 20.6 64
2022-06-03 07:46:18 20.7 65
2022-06-03 08:01:18 20.7 65
2022-06-03 08:16:18 20.8 66
2022-06-03 08:31:18 20.9 67
2022-06-03 08:46:18 21.0 67
2022-06-03 09:01:18 21.1 67
2022-06-03 09:16:18 21.3 68
2022-06-03 09:31:18 21.4 67
2022-06-03 09:46:18 21.5 67
2022-06-03 10:01:18 21.8 65
2022-06-03 10:16:18 22.0 65
2022-06-03 10:31:18 22.1 65
2022-06-03 10:46:18 22.3 64
2022-06-03 11:01:18 22.5 64
2022-06-03 11:16:18 22.8 63
2022-06-03 11:31:18 23.0 63
2022-06-03 11:46:18 23.2 63
2022-06-03 12:01:18 23.4 63
2022-06-03 12:16:18 23.7 61
2022-06-03 12:31:18 24.3 61
2022-06-03 12:46:18 24.4 61
2022-06-03 13:01:18 24.5 59
2022-06-03 13:16:18 24.6 61
2022-06-03 13:31:18 24.7 61
2022-06-03 13:46:18 24.8 62
2022-06-03 14:01:18 24.9 61
2022-06-03 14:16:18 25.0 62
2022-06-03 14:31:18 25.2 61
2022-06-03 14:46:18 25.4 60
2022-06-03 15:01:18 25.5 62
2022-06-03 15:16:18 25.6 59
2022-06-03 15:31:18 25.8 61
2022-06-03 15:46:18 26.0 61
2022-06-03 16:01:18 26.2 61
2022-06-03 16:16:18 26.4 59
2022-06-03 16:31:18 26.7 57
2022-06-03 16:46:18 27.0 60
2022-06-03 17:01:18 27.2 59
2022-06-03 17:16:18 27.3 61
2022-06-03 17:31:18 27.4 61
2022-06-03 17:46:18 27.7 60
2022-06-03 18:01:18 27.8 60
2022-06-03 18:16:18 27.9 63
2022-06-03 18:31:18 28.1 61
2022-06-03 18:46:18 28.2 59
2022-06-03 19:01:18 28.3 57
2022-06-03 19:16:18 28.3 57
2022-06-03 19:31:18 28.2 57
2022-06-03 19:46:18 28.0 57
2022-06-03 20:01:18 27.8 57
2022-06-03 20:16:18 27.7 58
2022-06-03 20:31:18 27.4 57
2022-06-03 20:46:18 27.3 57
2022-06-03 21:01:18 27.1 57
2022-06-03 21:16:18 26.9 58
2022-06-03 21:31:18 26.8 58
2022-06-03 21:46:18 26.6 58
2022-06-03 22:01:18 26.4 57
2022-06-03 22:16:18 26.2 58
2022-06-03 22:31:18 26.0 58
2022-06-03 22:46:18 25.9 58
2022-06-03 23:01:18 25.7 58
2022-06-03 23:16:18 25.5 58
2022-06-03 23:31:18 25.3 59
2022-06-03 23:46:18 25.1 64
2022-06-04 00:01:18 25.0 61
2022-06-04 00:16:18 24.9 64
2022-06-04 00:31:18 24.7 61
2022-06-04 00:46:18 24.5 63
2022-06-04 01:01:18 24.4 63
2022-06-04 01:16:18 24.2 62
2022-06-04 01:31:18 24.0 63
2022-06-04 01:46:18 23.9 64
2022-06-04 02:01:18 23.8 63
2022-06-04 02:16:18 23.7 61
2022-06-04 02:31:18 23.5 62
2022-06-04 02:46:18 23.4 61
2022-06-04 03:01:18 23.3 61
2022-06-04 03:16:18 23.1 62
2022-06-04 03:31:18 23.0 61
2022-06-04 03:46:18 22.9 62
2022-06-04 04:01:18 22.8 61
2022-06-04 04:16:18 22.7 61
2022-06-04 04:31:18 22.6 62
2022-06-04 04:46:18 22.5 62
2022-06-04 05:01:18 22.4 61
2022-06-04 05:16:18 22.3 61
2022-06-04 05:31:18 22.2 61
2022-06-04 05:46:18 22.1 61
2022-06-04 06:01:18 22.0 61
2022-06-04 06:16:18 22.0 62
2022-06-04 06:31:18 21.9 62
2022-06-04 06:46:18 21.9 62
2022-06-04 07:01:18 21.9 63
2022-06-04 07:16:18 21.9 65
2022-06-04 07:31:18 21.9 64
2022-06-04 07:46:18 21.9 63
2022-06-04 08:01:18 21.9 63
2022-06-04 08:16:18 22.0 64
2022-06-04 08:31:18 22.0 63
2022-06-04 08:46:18 22.1 64
2022-06-04 09:01:18 22.2 65
2022-06-04 09:16:18 22.3 65
2022-06-04 09:31:18 22.4 65
2022-06-04 09:46:18 22.5 65
2022-06-04 10:01:18 22.6 64
2022-06-04 10:16:18 22.8 65
2022-06-04 10:31:18 22.9 64
2022-06-04 10:46:18 23.0 64
2022-06-04 11:01:18 23.1 63
2022-06-04 11:16:18 23.4 62
2022-06-04 11:31:18 23.4 61
2022-06-04 11:46:18 23.7 60
2022-06-04 12:01:18 23.9 59
2022-06-04 12:16:18 24.3 59
2022-06-04 12:31:18 24.4 58
2022-06-04 12:46:18 24.6 57
2022-06-04 13:01:18 24.7 56
2022-06-04 13:16:18 24.7 57
2022-06-04 13:31:18 24.7 58
2022-06-04 13:46:18 24.9 59
2022-06-04 14:01:18 24.9 59
2022-06-04 14:16:18 25.0 60
2022-06-04 14:31:18 25.2 59
2022-06-04 14:46:18 25.4 61
2022-06-04 15:01:18 25.7 56
2022-06-04 15:16:18 25.9 58
2022-06-04 15:31:18 26.0 57
2022-06-04 15:46:18 26.2 57
2022-06-04 16:01:18 26.4 58
2022-06-04 16:16:18 26.5 57
2022-06-04 16:31:18 26.6 58
2022-06-04 16:46:18 26.7 57
2022-06-04 17:01:18 26.7 58
2022-06-04 17:16:18 26.6 58
2022-06-04 17:31:18 26.6 58
2022-06-04 17:46:18 26.5 58
2022-06-04 18:01:18 26.5 58
2022-06-04 18:16:18 26.4 59
2022-06-04 18:31:18 26.3 61
2022-06-04 18:46:18 26.3 61
2022-06-04 19:01:18 26.2 57
2022-06-04 19:16:18 26.2 58
2022-06-04 19:31:18 26.1 58
2022-06-04 19:46:18 26.0 59
2022-06-04 20:01:18 26.0 59
2022-06-04 20:16:18 25.9 61
2022-06-04 20:31:18 25.7 59
2022-06-04 20:46:18 25.6 60
2022-06-04 21:01:18 25.4 60
2022-06-04 21:16:18 25.3 60
2022-06-04 21:31:18 25.0 60
2022-06-04 21:46:18 24.9 61
2022-06-04 22:01:18 24.8 63
2022-06-04 22:16:18 24.6 63
2022-06-04 22:31:18 24.4 61
2022-06-04 22:46:18 24.3 61
2022-06-04 23:01:18 24.1 61
2022-06-04 23:16:18 24.0 62
2022-06-04 23:31:18 23.9 63
2022-06-04 23:46:18 23.8 63
2022-06-05 00:01:18 23.6 64
2022-06-05 00:16:18 23.5 63
2022-06-05 00:31:18 23.4 63
2022-06-05 00:46:18 23.2 64
2022-06-05 01:01:18 23.1 64
2022-06-05 01:16:18 23.0 63
2022-06-05 01:31:18 22.9 62
2022-06-05 01:46:18 22.8 61
2022-06-05 02:01:18 22.7 62
2022-06-05 02:16:18 22.5 62
2022-06-05 02:31:18 22.5 61
2022-06-05 02:46:18 22.4 61
2022-06-05 03:01:18 22.3 62
2022-06-05 03:16:18 22.3 62
2022-06-05 03:31:18 22.2 63
2022-06-05 03:46:18 22.2 62
2022-06-05 04:01:18 22.1 62
2022-06-05 04:16:18 22.0 62
2022-06-05 04:31:18 21.9 62
2022-06-05 04:46:18 21.9 62
2022-06-05 05:01:18 21.7 62
2022-06-05 05:16:18 21.6 62
2022-06-05 05:31:18 21.5 62
2022-06-05 05:46:18 21.5 62
2022-06-05 06:01:18 21.4 62
2022-06-05 06:16:18 21.3 62
2022-06-05 06:31:18 21.3 63
2022-06-05 06:46:18 21.2 63
2022-06-05 07:01:18 21.2 65
2022-06-05 07:16:18 21.2 65
2022-06-05 07:31:18 21.2 65
2022-06-05 07:46:18 21.2 64
2022-06-05 08:01:18 21.3 65
2022-06-05 08:16:18 21.3 64
2022-06-05 08:31:18 21.4 64
2022-06-05 08:46:18 21.5 65
2022-06-05 09:01:18 21.6 64
2022-06-05 09:16:18 21.7 65
2022-06-05 09:31:18 21.8 64
2022-06-05 09:46:18 22.0 65
2022-06-05 10:01:18 22.2 64
2022-06-05 10:16:18 22.5 64
2022-06-05 10:31:18 22.6 65
2022-06-05 10:46:18 22.9 63
2022-06-05 11:01:18 23.1 63
2022-06-05 11:16:18 23.4 62
2022-06-05 11:31:18 23.6 61
2022-06-05 11:46:18 24.0 61
2022-06-05 12:01:18 24.1 60
2022-06-05 12:16:18 24.2 60
2022-06-05 12:31:18 24.4 61
2022-06-05 12:46:18 24.5 62
2022-06-05 13:01:18 24.7 61
2022-06-05 13:16:18 24.8 62
2022-06-05 13:31:18 25.0 60
2022-06-05 13:46:18 25.2 59
2022-06-05 14:01:18 25.4 59
2022-06-05 14:16:18 25.5 61
2022-06-05 14:31:18 25.7 59
2022-06-05 14:46:19 25.9 59
2022-06-05 15:01:19 26.1 59
2022-06-05 15:16:19 26.2 60
2022-06-05 15:31:19 26.4 59
2022-06-05 15:46:19 26.6 58
2022-06-05 16:01:19 26.8 59
2022-06-05 16:16:19 26.9 60
2022-06-05 16:31:19 27.0 59
2022-06-05 16:46:19 27.0 59
2022-06-05 17:01:19 27.1 57
2022-06-05 17:16:19 27.4 59
2022-06-05 17:31:19 27.5 58
2022-06-05 17:46:19 27.7 60
2022-06-05 18:01:19 27.9 57
2022-06-05 18:16:19 28.0 57
2022-06-05 18:31:19 28.1 58
2022-06-05 18:46:19 28.0 57
2022-06-05 19:01:19 27.9 57
2022-06-05 19:16:19 27.8 56
2022-06-05 19:31:19 27.6 56
2022-06-05 19:46:19 27.5 54
2022-06-05 20:01:19 27.4 55
2022-06-05 20:16:19 27.2 57
2022-06-05 20:31:19 27.1 58
2022-06-05 20:46:19 26.9 55
2022-06-05 21:01:19 26.7 55
2022-06-05 21:16:19 26.6 55
2022-06-05 21:31:19 26.4 55
2022-06-05 21:46:19 26.3 55
2022-06-05 22:01:19 26.1 56
2022-06-05 22:16:19 25.9 56
2022-06-05 22:31:19 25.8 56
2022-06-05 22:46:19 25.6 57
2022-06-05 23:01:19 25.4 58
2022-06-05 23:16:19 25.4 58
2022-06-05 23:31:19 25.2 57
2022-06-05 23:46:19 25.1 58
2022-06-06 00:01:19 25.0 59
2022-06-06 00:16:19 24.9 57
2022-06-06 00:31:19 24.8 57
2022-06-06 00:46:19 24.7 57
2022-06-06 01:01:19 24.6 57
2022-06-06 01:16:19 24.5 57
2022-06-06 01:31:19 24.4 58
2022-06-06 01:46:19 24.3 57
2022-06-06 02:01:19 24.2 57
2022-06-06 02:16:19 24.1 56
2022-06-06 02:31:19 24.0 57
2022-06-06 02:46:19 23.9 59
2022-06-06 03:01:19 23.8 60
2022-06-06 03:16:19 23.7 57
2022-06-06 03:31:19 23.5 56
2022-06-06 03:46:19 23.3 58
2022-06-06 04:01:19 23.2 57
2022-06-06 04:16:19 23.1 58
2022-06-06 04:31:19 23.0 58
2022-06-06 04:46:19 22.9 59
2022-06-06 05:01:19 22.8 58
2022-06-06 05:16:19 22.7 58
2022-06-06 05:31:19 22.6 58
2022-06-06 05:46:19 22.5 58
2022-06-06 06:01:19 22.5 57
2022-06-06 06:16:19 22.4 57
2022-06-06 06:31:19 22.4 57
2022-06-06 06:46:19 22.3 59
2022-06-06 07:01:19 22.2 57
2022-06-06 07:16:19 22.2 60
2022-06-06 07:31:19 22.2 61
2022-06-06 07:46:19 22.1 60
2022-06-06 08:01:19 22.2 59
2022-06-06 08:16:19 22.2 60
2022-06-06 08:31:19 22.2 62
2022-06-06 08:46:19 22.3 61
2022-06-06 09:01:19 22.4 61
2022-06-06 09:16:19 22.4 59
2022-06-06 09:31:19 22.5 58
2022-06-06 09:46:19 22.7 60
2022-06-06 10:01:19 22.9 60
2022-06-06 10:16:19 23.0 58
2022-06-06 10:31:19 23.1 58
2022-06-06 10:46:19 23.3 56
2022-06-06 11:01:19 23.5 56
2022-06-06 11:16:19 23.7 57
2022-06-06 11:31:19 23.9 55
2022-06-06 11:46:19 24.0 55
2022-06-06 12:01:19 24.0 55
2022-06-06 12:16:19 24.1 56
2022-06-06 12:31:19 24.2 55
2022-06-06 12:46:19 24.3 55
2022-06-06 13:01:19 24.1 62
2022-06-06 13:16:19 24.0 57
2022-06-06 13:31:19 24.2 59
2022-06-06 13:46:19 24.4 58
2022-06-06 14:01:19 24.7 58
2022-06-06 14:16:19 25.0 56
2022-06-06 14:31:19 25.2 56
2022-06-06 14:46:19 25.4 56
2022-06-06 15:01:19 25.5 55
2022-06-06 15:16:19 25.8 55
2022-06-06 15:31:19 26.0 56
2022-06-06 15:46:19 26.2 55
2022-06-06 16:01:19 26.3 55
2022-06-06 16:16:19 26.4 55
2022-06-06 16:31:19 26.6 56
2022-06-06 16:46:19 26.8 56
2022-06-06 17:01:19 26.6 56
2022-06-06 17:16:19 26.5 56
2022-06-06 17:31:19 26.6 56
2022-06-06 17:46:19 26.6 55
2022-06-06 18:01:19 26.8 55
2022-06-06 18:16:19 27.0 55
2022-06-06 18:31:19 26.7 57
2022-06-06 18:46:19 26.7 56
2022-06-06 19:01:19 26.6 57
2022-06-06 19:16:19 26.6 58
2022-06-06 19:31:19 26.6 56
2022-06-06 19:46:19 26.4 58
2022-06-06 20:01:19 26.3 58
2022-06-06 20:16:19 26.1 57
2022-06-06 20:31:19 26.0 60
2022-06-06 20:46:19 25.7 57
2022-06-06 21:01:19 25.5 57
2022-06-06 21:16:19 25.4 57
2022-06-06 21:31:19 25.2 57
2022-06-06 21:46:19 25.0 59
2022-06-06 22:01:19 24.9 58
2022-06-06 22:16:19 24.7 58
2022-06-06 22:31:19 24.5 59
2022-06-06 22:46:19 24.4 61
2022-06-06 23:01:19 24.2 61
2022-06-06 23:16:19 24.1 63
2022-06-06 23:31:19 23.9 61
2022-06-06 23:46:19 23.8 61
2022-06-07 00:01:19 23.7 60
2022-06-07 00:16:19 23.5 61
2022-06-07 00:31:19 23.4 60
2022-06-07 00:46:19 23.5 65
2022-06-07 01:01:19 23.3 63
2022-06-07 01:16:19 23.2 63
2022-06-07 01:31:19 23.1 61
2022-06-07 01:46:19 23.0 61
2022-06-07 02:01:19 22.9 63
2022-06-07 02:16:19 22.9 62
2022-06-07 02:31:19 22.8 62
2022-06-07 02:46:19 22.7 63
2022-06-07 03:01:19 22.5 62
2022-06-07 03:16:19 22.5 62
2022-06-07 03:31:19 22.4 64
2022-06-07 03:46:19 22.3 63
2022-06-07 04:01:19 22.2 62
2022-06-07 04:16:19 22.1 62
2022-06-07 04:31:19 22.0 62
2022-06-07 04:46:19 21.9 62
2022-06-07 05:01:19 21.8 62
2022-06-07 05:16:19 21.8 64
2022-06-07 05:31:19 21.6 62
2022-06-07 05:46:19 21.5 62
2022-06-07 06:01:19 21.5 63
2022-06-07 06:16:19 21.4 63
2022-06-07 06:31:19 21.4 63
2022-06-07 06:46:19 21.3 65
2022-06-07 07:01:19 21.2 64
2022-06-07 07:16:19 21.2 65
2022-06-07 07:31:19 21.2 64
2022-06-07 07:46:19 21.2 67
2022-06-07 08:01:19 21.3 65
2022-06-07 08:16:19 21.3 65
2022-06-07 08:31:19 21.3 66
2022-06-07 08:46:19 21.4 66
2022-06-07 09:01:19 21.5 64
2022-06-07 09:16:19 21.6 64
2022-06-07 09:31:19 21.7 65
2022-06-07 09:46:19 21.9 64
2022-06-07 10:01:19 22.0 65
2022-06-07 10:16:19 22.1 64
2022-06-07 10:31:19 22.3 64
2022-06-07 10:46:19 22.4 64
2022-06-07 11:01:19 22.5 65
2022-06-07 11:16:19 22.7 63
2022-06-07 11:31:19 22.9 63
2022-06-07 11:46:19 23.0 63
2022-06-07 12:01:19 23.1 63
2022-06-07 12:16:19 23.3 63
2022-06-07 12:31:19 23.4 62
2022-06-07 12:46:19 23.6 62
2022-06-07 13:01:19 23.8 62
2022-06-07 13:16:19 23.9 61
2022-06-07 13:31:19 24.0 61
2022-06-07 13:46:19 24.2 61
2022-06-07 14:01:19 24.4 61
2022-06-07 14:16:19 24.5 61
2022-06-07 14:31:19 24.7 61
2022-06-07 14:46:19 24.9 61
2022-06-07 15:01:19 25.0 61
2022-06-07 15:16:19 25.2 59
2022-06-07 15:31:19 25.4 59
2022-06-07 15:46:20 25.3 61
2022-06-07 16:01:20 25.0 61
2022-06-07 16:16:20 24.9 63
2022-06-07 16:31:20 24.8 63
2022-06-07 16:46:20 24.9 63
2022-06-07 17:01:20 24.9 63
2022-06-07 17:16:20 25.1 62
2022-06-07 17:31:20 25.3 63
2022-06-07 17:46:20 25.4 61
2022-06-07 18:01:20 25.4 61
2022-06-07 18:16:20 25.4 62
2022-06-07 18:31:20 25.5 61
2022-06-07 18:46:20 25.6 61
2022-06-07 19:01:20 25.6 61
2022-06-07 19:16:20 25.7 61
2022-06-07 19:31:20 25.7 60
2022-06-07 19:46:20 25.6 60
2022-06-07 20:01:20 25.4 63
2022-06-07 20:16:20 25.2 60
2022-06-07 20:31:20 25.0 61
2022-06-07 20:46:20 24.9 63
2022-06-07 21:01:20 24.7 60
2022-06-07 21:16:20 24.6 63
2022-06-07 21:31:20 24.5 62
2022-06-07 21:46:20 24.3 64
2022-06-07 22:01:20 24.2 63
2022-06-07 22:16:20 24.1 65
2022-06-07 22:31:20 23.9 63
2022-06-07 22:46:20 23.7 61
2022-06-07 23:01:20 23.5 62
2022-06-07 23:16:20 23.5 62
2022-06-07 23:31:20 23.4 63
2022-06-07 23:46:20 23.2 63
2022-06-08 00:01:20 23.2 63
2022-06-08 00:16:20 23.0 65
2022-06-08 00:31:20 22.9 64
2022-06-08 00:46:20 22.9 65
2022-06-08 01:01:20 22.6 66
2022-06-08 01:16:20 22.5 64
2022-06-08 01:31:20 22.4 65
2022-06-08 01:46:20 22.3 66
2022-06-08 02:01:20 22.2 63
2022-06-08 02:16:20 22.1 63
2022-06-08 02:31:20 22.0 63
2022-06-08 02:46:20 21.9 65
2022-06-08 03:01:20 21.8 64
2022-06-08 03:16:20 21.7 64
2022-06-08 03:31:20 21.5 63
2022-06-08 03:46:20 21.4 63
2022-06-08 04:01:20 21.4 63
2022-06-08 04:16:20 21.3 65
2022-06-08 04:31:20 21.2 63
2022-06-08 04:46:20 21.1 64
2022-06-08 05:01:20 21.1 64
2022-06-08 05:16:20 21.1 64
2022-06-08 05:31:20 21.0 65
2022-06-08 05:46:20 21.0 65
2022-06-08 06:01:20 21.0 65
2022-06-08 06:16:20 21.0 65
2022-06-08 06:31:20 21.0 65
2022-06-08 06:46:20 20.9 66
2022-06-08 07:01:20 21.0 66
2022-06-08 07:16:20 20.9 66
2022-06-08 07:31:20 20.9 66
2022-06-08 07:46:20 21.0 66
2022-06-08 08:01:20 21.0 66
2022-06-08 08:16:20 21.0 67
2022-06-08 08:31:20 21.0 66
2022-06-08 08:46:20 21.1 66
2022-06-08 09:01:20 21.1 67
2022-06-08 09:16:20 21.3 70
2022-06-08 09:31:20 21.3 71
2022-06-08 09:46:20 21.4 69
2022-06-08 10:01:20 21.5 68
2022-06-08 10:16:20 21.6 68
2022-06-08 10:31:20 21.8 69
2022-06-08 10:46:20 21.9 69
2022-06-08 11:01:20 22.0 66
2022-06-08 11:16:20 22.2 66
2022-06-08 11:31:20 22.4 65
2022-06-08 11:46:20 22.5 65
2022-06-08 12:01:20 22.7 64
2022-06-08 12:16:20 22.8 66
2022-06-08 12:31:20 22.9 64
2022-06-08 12:46:20 23.0 65
2022-06-08 13:01:20 23.1 64
2022-06-08 13:16:20 23.3 64
2022-06-08 13:31:20 23.4 64
2022-06-08 13:46:20 23.5 63
2022-06-08 14:01:20 23.7 63
2022-06-08 14:16:20 23.9 62
2022-06-08 14:31:20 24.0 62